Time;durP1;ratioP1;P1;durP2;ratioP2;P2;SDS_P1;SDS_P2;PMS_P1;PMS_P2;Temp;Humidity;BMP_temperature;BMP_pressure;BME280_temperature;BME280_humidity;BME280_pressure;Samples;Min_cycle;Max_cycle;Signal;HPM_P1;HPM_P2
2022/09/20 00:00:45;;;;;;;7.73;1.27;;;;;;;20.37;100.00;102076.06;4998652;28;20102;-56
2022/09/20 00:03:13;;;;;;;16.40;1.93;;;;;;;20.29;100.00;102076.38;5006044;28;20282;-53
2022/09/20 00:05:41;;;;;;;10.83;2.00;;;;;;;20.26;100.00;102074.13;5005399;28;20272;-54
2022/09/20 00:08:11;;;;;;;19.00;2.03;;;;;;;20.11;100.00;102069.09;5004075;28;20288;-54
2022/09/20 00:10:39;;;;;;;8.20;2.07;;;;;;;19.99;100.00;102088.06;5016084;28;20280;-54
2022/09/20 00:13:07;;;;;;;7.63;1.60;;;;;;;19.92;100.00;102077.28;4990778;28;20289;-55
2022/09/20 00:15:33;;;;;;;8.73;2.03;;;;;;;19.98;100.00;102081.81;5000970;28;20306;-54
2022/09/20 00:17:59;;;;;;;10.25;1.98;;;;;;;19.98;100.00;102083.69;4996744;28;20269;-56
2022/09/20 00:20:25;;;;;;;23.50;2.33;;;;;;;19.89;100.00;102085.84;4992348;28;20065;-55
2022/09/20 00:22:51;;;;;;;15.18;2.33;;;;;;;19.69;100.00;102077.97;4998076;28;20039;-57
2022/09/20 00:25:18;;;;;;;16.70;2.83;;;;;;;19.82;100.00;102083.22;5006970;28;20038;-55
2022/09/20 00:27:44;;;;;;;10.27;2.27;;;;;;;19.95;100.00;102084.97;4994219;28;20049;-55
2022/09/20 00:30:12;;;;;;;8.65;2.80;;;;;;;20.00;100.00;102085.13;5006170;28;20298;-56
2022/09/20 00:32:38;;;;;;;7.97;2.20;;;;;;;19.97;100.00;102087.47;4993832;28;20035;-51
2022/09/20 00:35:08;;;;;;;13.77;2.40;;;;;;;19.87;100.00;102086.09;5003869;28;20284;-54
2022/09/20 00:37:35;;;;;;;9.53;2.53;;;;;;;19.99;100.00;102083.47;5003486;28;20038;-54
2022/09/20 00:40:01;;;;;;;5.75;1.75;;;;;;;19.87;100.00;102080.66;5020297;28;20276;-53
2022/09/20 00:42:29;;;;;;;8.13;1.80;;;;;;;19.98;100.00;102092.66;4995734;28;20035;-54
2022/09/20 00:45:07;;;;;;;12.27;2.10;;;;;;;19.61;100.00;102088.06;5029041;28;20265;-55
2022/09/20 00:47:38;;;;;;;13.43;2.60;;;;;;;19.13;100.00;102086.88;5031401;28;20278;-56
2022/09/20 00:50:29;;;;;;;10.50;2.07;;;;;;;18.86;100.00;102081.66;4991496;28;20293;-56
2022/09/20 00:53:06;;;;;;;8.13;2.20;;;;;;;19.37;100.00;102091.63;5013154;28;20285;-54
2022/09/20 00:55:35;;;;;;;13.73;3.10;;;;;;;19.10;100.00;102087.31;5004990;28;20292;-55
2022/09/20 00:58:01;;;;;;;10.00;2.07;;;;;;;19.23;100.00;102090.94;5004987;28;20269;-56
2022/09/20 01:00:28;;;;;;;13.68;2.80;;;;;;;19.60;100.00;102091.81;5000018;28;20299;-58
2022/09/20 01:02:57;;;;;;;9.18;2.45;;;;;;;19.43;100.00;102088.06;5010215;28;20039;-54
2022/09/20 01:05:24;;;;;;;13.13;2.60;;;;;;;19.73;100.00;102084.59;4992213;28;20031;-56
2022/09/20 01:07:50;;;;;;;11.15;2.22;;;;;;;19.59;100.00;102081.19;5012185;28;20277;-57
2022/09/20 01:10:16;;;;;;;8.75;2.65;;;;;;;19.77;100.00;102086.63;5013824;28;20031;-56
2022/09/20 01:12:44;;;;;;;9.10;1.90;;;;;;;19.60;100.00;102086.38;4991709;28;20050;-55
2022/09/20 01:15:12;;;;;;;15.93;4.00;;;;;;;19.47;100.00;102083.84;4993335;28;20038;-56
2022/09/20 01:17:41;;;;;;;7.57;2.67;;;;;;;19.16;100.00;102093.75;5003016;28;20275;-52
2022/09/20 01:20:18;;;;;;;10.60;2.93;;;;;;;19.32;100.00;102085.00;5011350;28;20640;-56
2022/09/20 01:23:21;;;;;;;11.43;2.70;;;;;;;19.58;100.00;102088.50;5005346;28;20351;-56
2022/09/20 01:26:11;;;;;;;7.33;2.60;;;;;;;19.44;100.00;102087.81;4995086;28;20287;-56
2022/09/20 01:28:41;;;;;;;8.17;2.50;;;;;;;19.04;100.00;102080.91;4993194;28;20264;-54
2022/09/20 01:31:15;;;;;;;11.67;2.97;;;;;;;19.40;100.00;102080.38;5009909;28;20276;-57
2022/09/20 01:33:48;;;;;;;16.20;3.07;;;;;;;19.22;100.00;102082.00;5013643;28;20292;-55
2022/09/20 01:36:30;;;;;;;17.33;3.73;;;;;;;19.29;100.00;102074.63;5020678;28;20301;-57
2022/09/20 01:39:09;;;;;;;12.97;3.50;;;;;;;19.30;100.00;102081.69;5024630;28;20290;-53
2022/09/20 01:41:44;;;;;;;17.53;3.73;;;;;;;18.91;100.00;102076.38;5011614;28;20284;-52
2022/09/20 01:44:41;;;;;;;9.30;3.70;;;;;;;18.85;100.00;102069.16;5013156;28;20271;-54
2022/09/20 01:47:15;;;;;;;10.63;2.63;;;;;;;19.12;100.00;102073.53;5002560;28;20366;-53
2022/09/20 01:50:04;;;;;;;13.17;4.10;;;;;;;19.06;100.00;102070.66;4998113;28;20361;-52
2022/09/20 01:52:40;;;;;;;23.30;6.37;;;;;;;19.09;100.00;102077.53;4993302;28;20269;-55
2022/09/20 01:55:27;;;;;;;27.90;8.97;;;;;;;18.73;100.00;102071.75;5000449;28;20284;-56
2022/09/20 01:58:27;;;;;;;41.97;12.80;;;;;;;19.00;100.00;102070.72;5010009;28;20270;-56
2022/09/20 02:01:07;;;;;;;41.53;11.23;;;;;;;19.23;100.00;102070.09;4991840;28;20053;-57
2022/09/20 02:04:09;;;;;;;35.13;9.80;;;;;;;18.88;100.00;102084.13;5015532;28;20270;-58
2022/09/20 02:07:00;;;;;;;28.17;8.93;;;;;;;19.36;100.00;102079.97;5003671;28;20266;-52
2022/09/20 02:10:04;;;;;;;16.73;5.23;;;;;;;18.82;100.00;102080.44;5010642;28;20291;-53
2022/09/20 02:12:43;;;;;;;11.07;3.33;;;;;;;18.99;100.00;102080.75;5009584;28;20269;-55
2022/09/20 02:15:36;;;;;;;7.87;2.37;;;;;;;18.89;100.00;102074.94;5007314;28;20289;-55
2022/09/20 02:18:30;;;;;;;8.27;3.17;;;;;;;18.89;100.00;102074.94;5011507;28;20274;-54
2022/09/20 02:21:16;;;;;;;10.50;2.70;;;;;;;18.75;100.00;102069.66;5010513;28;20264;-54
2022/09/20 02:24:02;;;;;;;6.70;1.85;;;;;;;19.17;100.00;102082.66;5004801;28;20287;-56
2022/09/20 02:26:45;;;;;;;7.43;1.80;;;;;;;18.90;100.00;102073.88;4992146;28;20026;-56
2022/09/20 02:29:24;;;;;;;7.83;2.30;;;;;;;19.03;100.00;102076.53;4996773;28;20283;-57
2022/09/20 02:32:14;;;;;;;9.43;1.93;;;;;;;19.34;100.00;102077.47;5023585;28;20270;-53
2022/09/20 02:35:19;;;;;;;6.07;2.23;;;;;;;19.39;100.00;102073.28;5004234;28;20303;-52
2022/09/20 02:37:57;;;;;;;14.13;2.70;;;;;;;19.09;100.00;102072.09;4932037;28;20274;-56
2022/09/20 02:40:39;;;;;;;15.53;2.20;;;;;;;19.16;100.00;102072.06;4931921;28;20278;-52
2022/09/20 02:43:07;;;;;;;11.07;2.00;;;;;;;18.63;100.00;102068.69;4983422;28;20328;-56
2022/09/20 02:45:52;;;;;;;12.13;2.40;;;;;;;18.63;100.00;102060.56;4992584;28;20341;-55
2022/09/20 02:48:27;;;;;;;7.13;2.50;;;;;;;18.33;100.00;102062.00;5020543;28;20292;-55
2022/09/20 02:51:00;;;;;;;12.73;2.40;;;;;;;18.49;100.00;102065.25;5017674;28;20296;-55
2022/09/20 02:53:39;;;;;;;14.37;2.83;;;;;;;18.04;100.00;102068.84;5021094;28;20297;-56
2022/09/20 02:56:28;;;;;;;9.60;2.70;;;;;;;18.63;100.00;102066.81;5004011;28;20304;-57
2022/09/20 02:59:03;;;;;;;11.03;3.17;;;;;;;18.58;100.00;102063.94;5002157;28;20268;-55
2022/09/20 03:01:55;;;;;;;12.07;2.63;;;;;;;18.32;100.00;102064.94;5021301;28;20280;-54
2022/09/20 03:05:06;;;;;;;7.83;3.03;;;;;;;18.76;100.00;102068.59;5016854;28;20262;-56
2022/09/20 03:07:50;;;;;;;8.60;2.80;;;;;;;18.67;100.00;102066.38;5018647;28;20294;-57
2022/09/20 03:10:38;;;;;;;10.73;2.63;;;;;;;18.63;100.00;102060.56;4990596;28;20301;-54
2022/09/20 03:13:10;;;;;;;10.23;2.03;;;;;;;18.64;100.00;102064.91;5002278;28;20268;-55
2022/09/20 03:16:06;;;;;;;9.90;2.70;;;;;;;18.48;100.00;102069.00;5000401;28;20277;-56
2022/09/20 03:18:56;;;;;;;7.90;1.97;;;;;;;18.48;100.00;102074.41;5017381;28;20326;-55
2022/09/20 03:21:35;;;;;;;8.00;1.40;;;;;;;18.47;100.00;102079.03;5009954;28;20265;-54
2022/09/20 03:24:01;;;;;;;11.33;2.77;;;;;;;18.70;100.00;102071.34;5000746;28;20268;-56
2022/09/20 03:26:31;;;;;;;5.37;1.60;;;;;;;19.08;100.00;102080.44;5001685;28;20299;-55
2022/09/20 03:29:28;;;;;;;4.13;1.70;;;;;;;19.04;100.00;102080.09;5023269;28;20310;-53
2022/09/20 03:32:21;;;;;;;6.23;1.90;;;;;;;18.71;100.00;102071.13;5004239;28;20261;-55
2022/09/20 03:35:23;;;;;;;7.93;1.70;;;;;;;18.89;100.00;102073.06;5000255;28;20287;-54
2022/09/20 03:38:17;;;;;;;7.47;2.83;;;;;;;18.70;100.00;102071.34;4999039;28;20296;-53
2022/09/20 03:41:11;;;;;;;12.10;3.90;;;;;;;18.75;100.00;102074.22;4980878;28;20288;-57
2022/09/20 03:43:52;;;;;;;7.30;3.13;;;;;;;18.77;100.00;102081.09;5003409;28;20291;-54
2022/09/20 03:46:25;;;;;;;14.30;2.67;;;;;;;18.74;100.00;102077.97;5011540;28;20262;-53
2022/09/20 03:49:26;;;;;;;9.30;1.90;;;;;;;18.80;100.00;102084.41;5008406;28;20281;-57
2022/09/20 03:52:16;;;;;;;8.23;1.90;;;;;;;18.94;100.00;102077.00;5019792;28;20308;-56
2022/09/20 03:54:58;;;;;;;6.57;2.13;;;;;;;18.58;100.00;102071.22;5015646;28;20285;-55
2022/09/20 03:57:39;;;;;;;11.47;2.60;;;;;;;18.81;100.00;102076.06;5016545;28;20273;-55
2022/09/20 04:00:17;;;;;;;10.00;2.23;;;;;;;18.76;100.00;102071.31;5017455;28;20278;-58
2022/09/20 04:03:20;;;;;;;7.67;1.90;;;;;;;18.66;100.00;102075.56;4999989;28;20276;-51
2022/09/20 04:06:11;;;;;;;10.97;2.37;;;;;;;18.52;100.00;102066.69;4989293;28;20256;-55
2022/09/20 04:08:43;;;;;;;14.27;2.50;;;;;;;18.16;100.00;102061.69;5010932;28;20269;-50
2022/09/20 04:11:42;;;;;;;14.30;2.77;;;;;;;17.94;100.00;102063.00;5010982;28;20277;-54
2022/09/20 04:14:24;;;;;;;9.30;2.10;;;;;;;17.75;100.00;102071.84;5022424;28;20284;-54
2022/09/20 04:16:56;;;;;;;10.63;2.63;;;;;;;17.87;100.00;102069.28;5021047;28;20270;-53
2022/09/20 04:19:40;;;;;;;17.70;3.43;;;;;;;17.87;100.00;102073.84;5009614;28;20276;-50
2022/09/20 04:22:07;;;;;;;8.23;2.50;;;;;;;17.75;100.00;102073.69;5009856;28;20262;-54
2022/09/20 04:24:47;;;;;;;15.77;2.87;;;;;;;17.81;100.00;102072.88;5011850;28;20408;-52
2022/09/20 04:27:27;;;;;;;9.93;2.40;;;;;;;18.07;100.00;102068.41;5024859;28;20281;-54
2022/09/20 04:29:59;;;;;;;9.63;2.90;;;;;;;18.01;100.00;102067.38;5009980;28;20262;-54
2022/09/20 04:32:46;;;;;;;14.40;2.07;;;;;;;18.02;100.00;102065.53;4999280;28;20295;-50
2022/09/20 04:38:51;;;;;;;8.87;2.77;;;;;;;18.08;100.00;102070.06;4992982;28;20050;-54
2022/09/20 04:41:27;;;;;;;13.73;3.00;;;;;;;18.13;100.00;102077.56;5010829;28;20276;-53
2022/09/20 04:44:15;;;;;;;7.18;2.33;;;;;;;18.06;100.00;102072.16;5022127;28;20268;-55
2022/09/20 04:47:04;;;;;;;9.40;3.10;;;;;;;18.00;100.00;102068.41;4998275;28;20063;-54
2022/09/20 04:50:00;;;;;;;11.20;2.07;;;;;;;17.80;100.00;102075.78;4992649;28;20276;-53
2022/09/20 04:53:07;;;;;;;9.60;2.70;;;;;;;17.77;100.00;102079.75;5009987;28;20283;-55
2022/09/20 04:55:51;;;;;;;11.27;2.83;;;;;;;18.04;100.00;102077.78;5001202;28;20289;-53
2022/09/20 04:58:53;;;;;;;18.73;5.53;;;;;;;18.14;100.00;102079.22;4995992;28;20269;-55
2022/09/20 05:01:38;;;;;;;10.93;3.17;;;;;;;18.20;100.00;102083.75;4991849;28;20265;-55
2022/09/20 05:04:53;;;;;;;10.53;3.03;;;;;;;18.23;100.00;102088.72;5000237;28;20336;-53
2022/09/20 05:08:01;;;;;;;11.13;3.90;;;;;;;18.25;100.00;102093.94;4923271;28;20275;-55
2022/09/20 05:10:35;;;;;;;58.67;27.10;;;;;;;18.29;100.00;102090.56;4917751;28;20290;-53
2022/09/20 05:13:02;;;;;;;109.40;47.17;;;;;;;18.30;100.00;102088.69;4983770;28;20053;-56
2022/09/20 05:15:43;;;;;;;31.57;11.00;;;;;;;18.37;100.00;102086.78;5007559;28;20353;-50
2022/09/20 05:18:34;;;;;;;13.57;5.80;;;;;;;18.39;100.00;102092.78;5013639;28;20295;-55
2022/09/20 05:21:36;;;;;;;7.17;2.67;;;;;;;18.01;100.00;102088.19;4992551;28;20279;-53
2022/09/20 05:24:15;;;;;;;17.83;3.27;;;;;;;18.03;100.00;102091.53;4983995;28;20280;-52
2022/09/20 05:27:21;;;;;;;11.80;3.80;;;;;;;18.08;100.00;102102.56;4988521;28;20295;-56
2022/09/20 05:29:56;;;;;;;15.13;4.63;;;;;;;18.20;100.00;102100.00;5003821;28;20269;-54
2022/09/20 05:32:38;;;;;;;19.97;5.20;;;;;;;18.25;100.00;102107.47;4995130;28;20261;-54
2022/09/20 05:35:17;;;;;;;11.90;4.60;;;;;;;18.13;100.00;102107.31;5013799;28;20285;-55
2022/09/20 05:38:04;;;;;;;34.33;7.83;;;;;;;18.14;100.00;102109.81;5006601;28;20273;-57
2022/09/20 05:40:45;;;;;;;17.50;5.60;;;;;;;18.18;100.00;102108.31;5010603;28;20275;-55
2022/09/20 05:43:55;;;;;;;17.27;5.27;;;;;;;18.51;100.00;102105.66;5025632;28;20039;-57
2022/09/20 05:46:33;;;;;;;28.23;7.07;;;;;;;18.86;100.00;102119.59;4964324;28;20277;-55
2022/09/20 05:49:15;;;;;;;14.57;4.60;;;;;;;18.80;100.00;102116.94;4991829;28;20277;-55
2022/09/20 05:52:13;;;;;;;10.93;4.57;;;;;;;19.12;100.00;102123.16;4989072;28;20276;-55
2022/09/20 05:54:57;;;;;;;11.83;3.30;;;;;;;19.41;100.00;102130.84;5011545;28;20281;-57
2022/09/20 05:57:32;;;;;;;13.00;4.00;;;;;;;19.58;100.00;102131.09;5002990;28;20290;-55
2022/09/20 06:00:26;;;;;;;12.03;2.87;;;;;;;19.62;100.00;102135.84;5011966;28;20296;-54
2022/09/20 06:03:09;;;;;;;9.87;2.90;;;;;;;19.65;100.00;102139.16;4997647;28;20281;-55
2022/09/20 06:05:56;;;;;;;12.10;3.40;;;;;;;19.92;100.00;102143.28;4993994;28;20348;-56
2022/09/20 06:08:50;;;;;;;11.10;3.85;;;;;;;19.86;100.00;102143.31;5001902;28;20382;-55
2022/09/20 06:11:43;;;;;;;10.63;3.03;;;;;;;19.60;100.00;102142.53;5000141;28;20038;-53
2022/09/20 06:14:51;;;;;;;8.83;2.80;;;;;;;19.65;100.00;102139.97;4998750;28;20280;-53
2022/09/20 06:17:38;;;;;;;9.07;3.47;;;;;;;19.74;100.00;102137.81;4994865;28;20296;-56
2022/09/20 06:20:19;;;;;;;11.57;3.07;;;;;;;19.70;100.00;102137.41;4997777;28;20064;-55
2022/09/20 06:22:49;;;;;;;7.30;2.30;;;;;;;18.98;100.00;102129.72;5022416;28;20280;-53
2022/09/20 06:25:30;;;;;;;17.20;3.17;;;;;;;18.14;100.00;102134.16;5012733;28;20272;-54
2022/09/20 06:28:14;;;;;;;13.27;4.57;;;;;;;18.15;100.00;102137.72;5022543;28;20266;-53
2022/09/20 06:30:47;;;;;;;15.33;4.07;;;;;;;18.10;100.00;102141.06;5021739;28;20273;-54
2022/09/20 06:33:15;;;;;;;13.60;3.40;;;;;;;18.25;100.00;102139.97;4992200;28;20273;-55
2022/09/20 06:35:55;;;;;;;9.73;3.20;;;;;;;18.35;100.00;102134.91;5010763;28;20311;-56
2022/09/20 06:41:31;;;;;;;14.23;3.43;;;;;;;18.84;100.00;102147.94;5009786;28;20273;-55
2022/09/20 06:44:03;;;;;;;9.30;4.10;;;;;;;18.51;100.00;102138.16;5013901;28;20284;-55
2022/09/20 06:46:31;;;;;;;;;;;;;;;18.69;100.00;102140.97;5010470;28;20268;-52
2022/09/20 06:48:57;;;;;;;;;;;;;;;18.51;100.00;102141.69;5009549;28;19997;-54
2022/09/20 06:51:25;;;;;;;14.00;4.27;;;;;;;17.97;100.00;102139.19;5008162;28;19951;-56
2022/09/20 06:53:52;;;;;;;12.67;3.90;;;;;;;18.00;100.00;102143.38;5000173;28;20070;-53
2022/09/20 06:56:21;;;;;;;14.20;3.97;;;;;;;18.00;100.00;102143.38;5006924;28;20376;-54
2022/09/20 06:58:47;;;;;;;11.63;3.73;;;;;;;18.31;100.00;102149.94;5016479;28;20250;-54
2022/09/20 07:01:13;;;;;;;15.63;3.80;;;;;;;18.82;100.00;102155.47;5010318;28;20312;-53
2022/09/20 07:03:40;;;;;;;11.57;3.13;;;;;;;18.25;100.00;102148.91;5012373;28;20054;-57
2022/09/20 07:06:07;;;;;;;12.53;3.77;;;;;;;18.56;100.00;102154.59;4987041;28;20284;-56
2022/09/20 07:08:33;;;;;;;11.07;3.28;;;;;;;18.03;100.00;102157.31;4997949;28;20825;-56
2022/09/20 07:11:08;;;;;;;9.38;3.08;;;;;;;18.72;100.00;102154.09;5005635;28;20030;-54
2022/09/20 07:13:35;;;;;;;10.57;3.10;;;;;;;18.88;100.00;102160.00;4993773;28;20049;-58
2022/09/20 07:16:03;;;;;;;9.83;3.23;;;;;;;18.87;100.00;102164.63;5011868;28;20378;-53
2022/09/20 07:18:30;;;;;;;7.20;2.70;;;;;;;18.88;100.00;102162.72;4991634;28;20271;-58
2022/09/20 07:20:57;;;;;;;8.10;2.83;;;;;;;19.18;100.00;102171.09;4998627;28;20272;-56
2022/09/20 07:23:25;;;;;;;9.43;3.07;;;;;;;19.56;100.00;102176.63;5001861;28;20292;-56
2022/09/20 07:25:50;;;;;;;9.57;2.60;;;;;;;19.32;100.00;102171.78;4993208;28;20302;-58
2022/09/20 07:28:19;;;;;;;10.73;3.27;;;;;;;19.37;100.00;102164.88;5004866;28;20265;-57
2022/09/20 07:30:45;;;;;;;13.70;4.23;;;;;;;19.56;100.00;102169.28;4995062;28;20034;-56
2022/09/20 07:33:15;;;;;;;;;;;;;;;19.60;100.00;102167.78;4999919;28;20257;-56
2022/09/20 07:35:41;;;;;;;13.77;2.43;;;;;;;19.94;100.00;102172.06;5001682;28;19964;-57
2022/09/20 07:38:07;;;;;;;14.93;2.93;;;;;;;20.19;100.00;102170.09;5003846;28;20277;-55
2022/09/20 07:40:32;;;;;;;10.27;2.20;;;;;;;20.26;100.00;102170.03;5004347;28;20158;-57
2022/09/20 07:42:58;;;;;;;11.68;2.78;;;;;;;20.08;100.00;102173.59;4997660;28;20068;-53
2022/09/20 07:45:24;;;;;;;10.40;2.67;;;;;;;20.23;100.00;102173.19;5014175;28;20029;-57
2022/09/20 07:47:51;;;;;;;;;;;;;;;20.30;100.00;102181.28;4996256;28;20043;-55
2022/09/20 07:50:18;;;;;;;10.13;2.40;;;;;;;20.66;100.00;102184.16;4994369;28;19914;-56
2022/09/20 07:52:43;;;;;;;7.67;2.20;;;;;;;20.63;100.00;102188.13;4990928;28;20264;-56
2022/09/20 07:55:08;;;;;;;9.73;2.70;;;;;;;21.17;100.00;102182.75;5004223;28;20315;-56
2022/09/20 07:57:36;;;;;;;5.75;2.00;;;;;;;21.84;100.00;102182.69;5001084;28;20276;-57
2022/09/20 08:00:04;;;;;;;8.70;1.63;;;;;;;21.50;100.00;102180.53;5008409;28;20068;-57
2022/09/20 08:02:37;;;;;;;8.67;3.17;;;;;;;21.62;100.00;102186.78;5000396;28;20035;-58
2022/09/20 08:05:03;;;;;;;8.48;2.40;;;;;;;21.89;100.00;102186.31;4991181;28;20054;-57
2022/09/20 08:07:29;;;;;;;10.10;2.35;;;;;;;21.80;100.00;102195.94;5000579;28;20046;-55
2022/09/20 08:09:54;;;;;;;8.30;2.58;;;;;;;22.17;100.00;102203.81;4990865;28;20102;-54
2022/09/20 08:12:20;;;;;;;8.47;3.50;;;;;;;22.42;100.00;102202.66;5012525;28;20031;-59
2022/09/20 08:14:46;;;;;;;10.93;2.43;;;;;;;22.66;100.00;102207.22;4991926;28;20038;-56
2022/09/20 08:17:12;;;;;;;5.10;1.83;;;;;;;22.87;100.00;102208.44;4999762;28;20045;-55
2022/09/20 08:19:41;;;;;;;8.27;2.00;;;;;;;23.02;100.00;102218.78;5013284;28;20046;-56
2022/09/20 08:22:09;;;;;;;6.80;2.17;;;;;;;23.56;100.00;102221.03;5019786;28;20096;-56
2022/09/20 08:24:35;;;;;;;9.27;2.07;;;;;;;22.78;100.00;102225.16;5004253;28;20034;-57
2022/09/20 08:27:01;;;;;;;6.88;2.15;;;;;;;23.32;100.00;102234.03;4993862;28;20106;-54
2022/09/20 08:29:26;;;;;;;8.38;2.13;;;;;;;22.76;100.00;102235.50;5014402;28;20058;-54
2022/09/20 08:31:54;;;;;;;10.00;2.22;;;;;;;23.12;100.00;102243.50;5003985;28;20046;-54
2022/09/20 08:34:19;;;;;;;12.00;1.87;;;;;;;23.25;100.00;102234.19;5007152;28;20041;-55
2022/09/20 08:36:45;;;;;;;6.85;1.45;;;;;;;23.45;100.00;102238.34;5012525;28;20106;-56
2022/09/20 08:39:13;;;;;;;7.18;1.83;;;;;;;23.29;100.00;102240.00;5003331;28;20043;-58
2022/09/20 08:41:58;;;;;;;4.27;2.13;;;;;;;23.28;100.00;102247.34;4993399;28;20030;-54
2022/09/20 08:44:49;;;;;;;3.90;1.63;;;;;;;22.84;100.00;102244.38;5002447;28;20031;-57
2022/09/20 08:47:24;;;;;;;14.10;2.00;;;;;;;22.85;100.00;102246.03;5001221;28;20051;-56
2022/09/20 08:49:53;;;;;;;6.53;1.60;;;;;;;22.83;100.00;102246.25;4996925;28;20078;-57
2022/09/20 08:52:27;;;;;;;9.17;1.60;;;;;;;23.15;100.00;102255.84;5012608;28;20070;-56
2022/09/20 08:54:55;;;;;;;6.60;1.40;;;;;;;23.24;99.22;102257.06;5007010;28;20033;-53
2022/09/20 08:57:20;;;;;;;9.07;1.97;;;;;;;23.01;99.40;102250.66;5002678;28;20035;-57
2022/09/20 08:59:47;;;;;;;4.75;1.10;;;;;;;23.23;95.97;102254.59;4997890;28;20060;-54
2022/09/20 09:02:18;;;;;;;9.37;1.40;;;;;;;23.26;94.65;102265.06;5012693;28;20038;-57
2022/09/20 09:04:45;;;;;;;7.80;1.20;;;;;;;22.86;97.18;102264.06;4999314;28;20031;-57
2022/09/20 09:07:16;;;;;;;3.07;0.87;;;;;;;22.67;98.91;102258.78;5006492;28;20035;-57
2022/09/20 09:09:43;;;;;;;4.63;1.13;;;;;;;22.95;97.14;102265.31;4999621;28;20054;-57
2022/09/20 09:12:18;;;;;;;2.70;0.70;;;;;;;22.80;94.32;102262.28;5004577;28;20032;-56
2022/09/20 09:14:47;;;;;;;3.90;0.60;;;;;;;22.58;94.72;102263.78;5020173;28;20041;-56
2022/09/20 09:17:15;;;;;;;4.13;0.80;;;;;;;22.57;94.51;102270.31;5002071;28;20033;-57
2022/09/20 09:20:20;;;;;;;2.87;1.00;;;;;;;23.10;93.63;102269.38;4991954;28;20031;-57
2022/09/20 09:22:48;;;;;;;4.03;1.13;;;;;;;22.82;91.05;102268.31;5025136;28;20058;-57
2022/09/20 09:25:13;;;;;;;2.27;0.90;;;;;;;23.16;88.84;102274.66;4995863;28;20034;-58
2022/09/20 09:27:57;;;;;;;4.43;0.95;;;;;;;23.55;85.40;102273.16;5008020;28;20035;-59
2022/09/20 09:30:49;;;;;;;3.40;1.17;;;;;;;23.28;84.84;102271.91;5014817;28;20043;-57
2022/09/20 09:33:24;;;;;;;1.80;0.50;;;;;;;23.77;83.11;102267.78;4996933;28;20049;-57
2022/09/20 09:36:04;;;;;;;2.53;0.60;;;;;;;24.37;79.10;102270.78;4996686;28;20123;-58
2022/09/20 09:38:36;;;;;;;6.23;1.17;;;;;;;24.23;79.52;102264.88;4998432;28;20076;-55
2022/09/20 09:41:04;;;;;;;7.00;1.43;;;;;;;24.82;77.90;102277.09;4998146;28;20038;-59
2022/09/20 09:43:34;;;;;;;3.97;1.03;;;;;;;25.00;76.75;102273.16;5008861;28;20031;-56
2022/09/20 09:46:20;;;;;;;11.60;1.50;;;;;;;25.40;74.60;102270.22;4999139;28;20029;-57
2022/09/20 09:48:49;;;;;;;1.77;0.80;;;;;;;27.91;65.29;102283.34;5007712;28;20085;-56
2022/09/20 09:51:22;;;;;;;3.60;0.80;;;;;;;28.14;62.87;102284.66;5014751;28;20040;-55
2022/09/20 09:53:48;;;;;;;6.20;1.07;;;;;;;27.24;65.93;102276.00;4993162;28;20038;-58
2022/09/20 09:56:29;;;;;;;3.25;0.80;;;;;;;26.88;66.14;102275.94;5010294;28;20117;-54
2022/09/20 09:59:19;;;;;;;5.53;0.87;;;;;;;26.69;67.42;102268.19;4998540;28;20059;-55
2022/09/20 10:02:15;;;;;;;7.77;0.77;;;;;;;26.14;68.32;102274.00;5021740;28;20100;-59
2022/09/20 10:04:50;;;;;;;3.03;1.10;;;;;;;26.05;71.61;102275.59;4998207;28;20031;-57
2022/09/20 10:07:36;;;;;;;3.70;0.90;;;;;;;26.46;71.15;102281.28;4995754;28;20041;-56
2022/09/20 10:10:15;;;;;;;7.53;0.90;;;;;;;26.80;65.92;102282.75;5002934;28;20031;-56
2022/09/20 10:12:45;;;;;;;2.43;1.00;;;;;;;26.46;70.76;102269.50;5001759;28;20035;-55
2022/09/20 10:15:27;;;;;;;4.17;0.70;;;;;;;26.85;68.69;102271.81;5012313;28;20148;-57
2022/09/20 10:18:02;;;;;;;4.33;0.70;;;;;;;26.63;70.14;102275.56;4997116;28;20065;-58
2022/09/20 10:20:37;;;;;;;7.80;0.80;;;;;;;26.11;70.59;102273.69;5011285;28;20037;-57
2022/09/20 10:23:27;;;;;;;3.17;0.80;;;;;;;26.19;67.41;102274.06;5009118;28;20069;-58
2022/09/20 10:25:58;;;;;;;6.37;1.20;;;;;;;25.77;70.52;102274.88;5022210;28;20117;-57
2022/09/20 10:28:49;;;;;;;2.73;0.80;;;;;;;25.97;71.16;102268.72;5000130;28;20033;-55
2022/09/20 10:31:43;;;;;;;3.43;0.63;;;;;;;26.27;68.87;102271.88;5012466;28;20038;-57
2022/09/20 10:34:22;;;;;;;3.27;0.63;;;;;;;26.22;69.63;102280.09;5006056;28;20054;-57
2022/09/20 10:36:52;;;;;;;3.87;0.70;;;;;;;26.04;70.89;102282.16;5010363;28;20031;-57
2022/09/20 10:39:24;;;;;;;6.97;0.77;;;;;;;25.90;71.21;102281.81;5002259;28;20034;-57
2022/09/20 10:45:00;;;;;;;;;;;;;;;25.48;74.04;102280.72;5001655;28;20031;-56
2022/09/20 10:47:43;;;;;;;3.15;0.82;;;;;;;25.66;73.52;102284.13;5021204;28;19913;-56
2022/09/20 10:50:29;;;;;;;2.20;0.60;;;;;;;25.45;70.28;102278.47;5000151;28;20124;-57
2022/09/20 10:53:11;;;;;;;4.78;0.85;;;;;;;25.22;74.03;102285.94;5021388;28;20824;-56
2022/09/20 10:56:09;;;;;;;4.50;1.50;;;;;;;25.66;67.10;102284.94;5010477;28;20056;-59
2022/09/20 10:59:16;;;;;;;5.70;0.90;;;;;;;25.26;73.50;102287.06;5000011;28;20177;-56
2022/09/20 11:02:10;;;;;;;4.65;0.90;;;;;;;25.87;70.10;102290.56;4984947;28;20066;-58
2022/09/20 11:04:47;;;;;;;3.27;0.97;;;;;;;25.95;70.55;102284.59;5011509;28;20039;-58
2022/09/20 11:07:35;;;;;;;8.93;1.07;;;;;;;26.43;64.26;102287.31;5010605;28;20038;-56
2022/09/20 11:10:04;;;;;;;;;;;;;;;26.42;64.19;102284.84;5004053;28;20076;-56
2022/09/20 11:12:41;;;;;;;3.67;0.90;;;;;;;26.41;65.91;102281.28;5005737;28;19940;-56
2022/09/20 11:15:24;;;;;;;4.32;0.95;;;;;;;26.63;58.96;102261.84;4987383;28;20035;-57
2022/09/20 11:17:59;;;;;;;1.83;0.50;;;;;;;26.56;54.73;102268.72;5008735;28;20073;-58
2022/09/20 11:20:31;;;;;;;3.63;0.60;;;;;;;26.85;52.07;102273.75;5022021;28;20035;-57
2022/09/20 11:23:02;;;;;;;9.43;3.33;;;;;;;27.08;51.41;102269.66;5018797;28;20040;-58
2022/09/20 11:25:35;;;;;;;9.23;3.40;;;;;;;27.41;51.49;102277.63;5018059;28;20025;-60
2022/09/20 11:28:10;;;;;;;11.97;3.07;;;;;;;28.06;48.99;102279.72;4991082;28;20045;-58
2022/09/20 11:30:43;;;;;;;4.30;1.40;;;;;;;27.61;54.71;102283.13;5005054;28;20035;-58
2022/09/20 11:33:25;;;;;;;6.63;2.53;;;;;;;28.19;49.45;102283.81;5015404;28;20031;-57
2022/09/20 11:36:04;;;;;;;9.00;4.80;;;;;;;28.61;53.16;102284.47;4992915;28;20098;-56
2022/09/20 11:38:47;;;;;;;3.90;0.90;;;;;;;28.73;51.69;102289.63;4986409;28;20046;-57
2022/09/20 11:41:26;;;;;;;6.70;2.80;;;;;;;28.70;47.50;102293.78;4996112;28;20053;-59
2022/09/20 11:43:54;;;;;;;2.87;0.73;;;;;;;29.28;45.14;102295.03;5010548;28;20051;-59
2022/09/20 11:46:28;;;;;;;5.57;1.13;;;;;;;29.33;44.00;102295.00;5011686;28;20046;-59
2022/09/20 11:49:04;;;;;;;2.42;0.95;;;;;;;29.72;46.56;102292.47;4998635;28;20055;-58
2022/09/20 11:51:45;;;;;;;7.93;2.00;;;;;;;30.65;46.87;102299.66;4999076;28;20034;-58
2022/09/20 11:54:33;;;;;;;4.53;1.65;;;;;;;31.51;43.21;102308.84;4994227;28;20099;-56
2022/09/20 11:56:59;;;;;;;13.82;6.35;;;;;;;31.83;41.47;102301.66;4989641;28;20096;-59
2022/09/20 11:59:29;;;;;;;8.77;2.22;;;;;;;31.78;43.74;102300.94;5004752;28;20039;-58
2022/09/20 12:01:58;;;;;;;14.60;7.38;;;;;;;31.96;42.53;102304.72;5012041;28;20026;-58
2022/09/20 12:04:28;;;;;;;12.52;4.55;;;;;;;32.19;39.57;102303.69;4996444;28;20106;-58
2022/09/20 12:07:15;;;;;;;6.78;2.05;;;;;;;32.22;40.13;102302.25;5013743;28;20046;-58
2022/09/20 12:09:43;;;;;;;7.15;3.92;;;;;;;33.71;40.82;102307.38;5004062;28;20034;-58
2022/09/20 12:12:31;;;;;;;11.73;4.85;;;;;;;34.33;36.77;102313.94;5008880;28;20141;-59
2022/09/20 12:15:00;;;;;;;5.50;1.63;;;;;;;34.52;39.63;102302.59;4995095;28;20043;-59